Duruca — TCA3377 — position and weather

sailwx.info

Track history (hours):
 
Tides and Currents Weather Stations Pressure Air Temp Water Temp Dewpoint Dewpoint Depression Visibility Wind Speed Wind Dir Waves Ship Positions

Duruca

Last reported at 2018-Jun-20 18:30 UTC. Time now 2018-Jun-21 18:08 UTC.
Position N 41°06' E 001°14'.

Length 117 m; draft 6.6 m.

Type: Ship (hazmat cat A). MMSI: 271044033.

Date/timePositionNaut miles runAvg speedWind from/ knotsBaromVisibWave heightAir tempDewpointWater temp
2018-Jun-20 18:30N 41°06' E 001°14'2 3.3
2018-Jun-20 18:00N 41°04' E 001°13'1 1.6
2018-Jun-20 17:30N 41°04' E 001°14'6 7.1
2018-Jun-20 16:40N 41°01' E 001°21'1012.5
2018-Jun-20 15:51N 40°57' E 001°33'512.3
2018-Jun-20 15:28N 40°55' E 001°39'812.2
2018-Jun-20 14:47N 40°52' E 001°49'512.0
2018-Jun-20 14:23N 40°50' E 001°55'512.3
2018-Jun-20 14:00N 40°48' E 002°01'612.1
2018-Jun-20 13:30N 40°46' E 002°08'611.9
2018-Jun-20 12:59N 40°44' E 002°16'8711.9
2018-Jun-20 05:37N 40°13' E 004°03'211.7
2018-Jun-20 05:30N 40°12' E 004°05'611.8
2018-Jun-20 05:00N 40°10' E 004°12'47811.4
2018-Jun-18 10:56N 37°05' E 013°36'511.0
2018-Jun-18 10:29N 37°03' E 013°42'510.8
2018-Jun-18 10:00N 37°01' E 013°48'510.7
2018-Jun-18 09:30N 36°58' E 013°54'610.8
2018-Jun-18 08:58N 36°56' E 014°00'511.0
2018-Jun-18 08:30N 36°53' E 014°06'611.2
2018-Jun-18 08:00N 36°51' E 014°12'611.4
2018-Jun-18 07:30N 36°48' E 014°19'611.6
2018-Jun-18 07:00N 36°46' E 014°25'611.4
2018-Jun-18 06:29N 36°43' E 014°32'  
Track history (hours):
 
Tides and Currents Weather Stations Pressure Air Temp Water Temp Dewpoint Dewpoint Depression Visibility Wind Speed Wind Dir Waves Ship Positions

Duruca

Last reported at 2018-Jun-20 18:30 UTC. Time now 2018-Jun-21 18:08 UTC.
Position N 41°06' E 001°14'.

Length 117 m; draft 6.6 m.

Type: Ship (hazmat cat A). MMSI: 271044033.

Date/timePositionNaut miles runAvg speedWind from/ knotsBaromVisibWave heightAir tempDewpointWater temp
2018-Jun-20 18:30N 41°06' E 001°14'2 3.3
2018-Jun-20 18:00N 41°04' E 001°13'1 1.6
2018-Jun-20 17:30N 41°04' E 001°14'6 7.1
2018-Jun-20 16:40N 41°01' E 001°21'1012.5
2018-Jun-20 15:51N 40°57' E 001°33'512.3
2018-Jun-20 15:28N 40°55' E 001°39'812.2
2018-Jun-20 14:47N 40°52' E 001°49'512.0
2018-Jun-20 14:23N 40°50' E 001°55'512.3
2018-Jun-20 14:00N 40°48' E 002°01'612.1
2018-Jun-20 13:30N 40°46' E 002°08'611.9
2018-Jun-20 12:59N 40°44' E 002°16'8711.9
2018-Jun-20 05:37N 40°13' E 004°03'211.7
2018-Jun-20 05:30N 40°12' E 004°05'611.8
2018-Jun-20 05:00N 40°10' E 004°12'47811.4
2018-Jun-18 10:56N 37°05' E 013°36'511.0
2018-Jun-18 10:29N 37°03' E 013°42'510.8
2018-Jun-18 10:00N 37°01' E 013°48'510.7
2018-Jun-18 09:30N 36°58' E 013°54'610.8
2018-Jun-18 08:58N 36°56' E 014°00'511.0
2018-Jun-18 08:30N 36°53' E 014°06'611.2
2018-Jun-18 08:00N 36°51' E 014°12'611.4
2018-Jun-18 07:30N 36°48' E 014°19'611.6
2018-Jun-18 07:00N 36°46' E 014°25'611.4
2018-Jun-18 06:29N 36°43' E 014°32'  

Dump ship's entire track history